sensor_id;sensor_type;location;lat;lon;timestamp;pressure;altitude;pressure_sealevel;temperature;humidity
10852;BME280;5479;52.046;6.314;2023-05-25T00:01:07;102474.34;;;10.23;100.00
10852;BME280;5479;52.046;6.314;2023-05-25T00:03:35;102484.94;;;10.23;100.00
10852;BME280;5479;52.046;6.314;2023-05-25T00:06:05;102485.03;;;10.20;100.00
10852;BME280;5479;52.046;6.314;2023-05-25T00:08:33;102492.06;;;10.21;100.00
10852;BME280;5479;52.046;6.314;2023-05-25T00:11:03;102490.88;;;10.02;100.00
10852;BME280;5479;52.046;6.314;2023-05-25T00:13:31;102486.47;;;10.01;100.00
10852;BME280;5479;52.046;6.314;2023-05-25T00:15:59;102485.66;;;9.99;100.00
10852;BME280;5479;52.046;6.314;2023-05-25T00:18:27;102484.78;;;9.98;100.00
10852;BME280;5479;52.046;6.314;2023-05-25T00:20:55;102486.88;;;9.87;100.00
10852;BME280;5479;52.046;6.314;2023-05-25T00:23:25;102485.84;;;9.93;100.00
10852;BME280;5479;52.046;6.314;2023-05-25T00:25:53;102490.53;;;9.83;100.00
10852;BME280;5479;52.046;6.314;2023-05-25T00:28:23;102488.78;;;9.84;100.00
10852;BME280;5479;52.046;6.314;2023-05-25T00:30:51;102491.50;;;9.81;100.00
10852;BME280;5479;52.046;6.314;2023-05-25T00:33:19;102500.53;;;9.74;100.00
10852;BME280;5479;52.046;6.314;2023-05-25T00:35:47;102490.03;;;9.70;100.00
10852;BME280;5479;52.046;6.314;2023-05-25T00:38:15;102498.97;;;9.66;100.00
10852;BME280;5479;52.046;6.314;2023-05-25T00:40:44;102497.41;;;9.59;100.00
10852;BME280;5479;52.046;6.314;2023-05-25T00:43:12;102490.66;;;9.49;100.00
10852;BME280;5479;52.046;6.314;2023-05-25T00:45:41;102491.78;;;9.41;100.00
10852;BME280;5479;52.046;6.314;2023-05-25T00:48:09;102496.44;;;9.31;100.00
10852;BME280;5479;52.046;6.314;2023-05-25T00:50:39;102491.13;;;9.31;100.00
10852;BME280;5479;52.046;6.314;2023-05-25T00:53:09;102498.91;;;9.37;100.00
10852;BME280;5479;52.046;6.314;2023-05-25T00:55:40;102502.50;;;9.35;100.00
10852;BME280;5479;52.046;6.314;2023-05-25T00:58:12;102500.00;;;9.30;100.00
10852;BME280;5479;52.046;6.314;2023-05-25T01:00:42;102504.28;;;9.34;100.00
10852;BME280;5479;52.046;6.314;2023-05-25T01:03:14;102499.78;;;9.38;100.00
10852;BME280;5479;52.046;6.314;2023-05-25T01:05:47;102505.94;;;9.38;100.00
10852;BME280;5479;52.046;6.314;2023-05-25T01:08:19;102497.16;;;9.36;100.00
10852;BME280;5479;52.046;6.314;2023-05-25T01:10:51;102492.66;;;9.40;100.00
10852;BME280;5479;52.046;6.314;2023-05-25T01:13:20;102497.06;;;9.41;100.00
10852;BME280;5479;52.046;6.314;2023-05-25T01:15:50;102498.00;;;9.38;100.00
10852;BME280;5479;52.046;6.314;2023-05-25T01:18:20;102493.84;;;9.30;100.00
10852;BME280;5479;52.046;6.314;2023-05-25T01:20:57;102501.63;;;9.34;100.00
10852;BME280;5479;52.046;6.314;2023-05-25T01:23:30;102508.69;;;9.34;100.00
10852;BME280;5479;52.046;6.314;2023-05-25T01:26:02;102504.19;;;9.37;100.00
10852;BME280;5479;52.046;6.314;2023-05-25T01:28:35;102507.19;;;9.25;100.00
10852;BME280;5479;52.046;6.314;2023-05-25T01:31:06;102516.72;;;9.31;100.00
10852;BME280;5479;52.046;6.314;2023-05-25T01:33:35;102517.84;;;9.22;100.00
10852;BME280;5479;52.046;6.314;2023-05-25T01:36:05;102517.75;;;9.25;100.00
10852;BME280;5479;52.046;6.314;2023-05-25T01:38:34;102518.06;;;9.15;100.00
10852;BME280;5479;52.046;6.314;2023-05-25T01:41:03;102523.75;;;8.98;100.00
10852;BME280;5479;52.046;6.314;2023-05-25T01:43:31;102522.84;;;8.99;100.00
10852;BME280;5479;52.046;6.314;2023-05-25T01:46:08;102522.09;;;8.94;100.00
10852;BME280;5479;52.046;6.314;2023-05-25T01:48:44;102537.94;;;8.94;100.00
10852;BME280;5479;52.046;6.314;2023-05-25T01:51:20;102527.28;;;8.97;100.00
10852;BME280;5479;52.046;6.314;2023-05-25T01:53:52;102529.75;;;9.04;100.00
10852;BME280;5479;52.046;6.314;2023-05-25T01:56:21;102534.59;;;8.87;100.00
10852;BME280;5479;52.046;6.314;2023-05-25T01:58:50;102529.41;;;8.83;100.00
10852;BME280;5479;52.046;6.314;2023-05-25T02:01:24;102532.16;;;8.78;100.00
10852;BME280;5479;52.046;6.314;2023-05-25T02:03:54;102521.47;;;8.83;100.00
10852;BME280;5479;52.046;6.314;2023-05-25T02:06:24;102531.28;;;8.79;100.00
10852;BME280;5479;52.046;6.314;2023-05-25T02:08:52;102525.16;;;8.77;100.00
10852;BME280;5479;52.046;6.314;2023-05-25T02:11:20;102524.28;;;8.77;100.00
10852;BME280;5479;52.046;6.314;2023-05-25T02:13:48;102532.22;;;8.77;100.00
10852;BME280;5479;52.046;6.314;2023-05-25T02:16:16;102526.25;;;8.69;100.00
10852;BME280;5479;52.046;6.314;2023-05-25T02:18:44;102536.88;;;8.66;100.00
10852;BME280;5479;52.046;6.314;2023-05-25T02:21:12;102528.84;;;8.70;100.00
10852;BME280;5479;52.046;6.314;2023-05-25T02:23:41;102528.09;;;8.65;100.00
10852;BME280;5479;52.046;6.314;2023-05-25T02:26:10;102529.09;;;8.61;100.00
10852;BME280;5479;52.046;6.314;2023-05-25T02:28:38;102529.16;;;8.57;100.00
10852;BME280;5479;52.046;6.314;2023-05-25T02:31:06;102527.66;;;8.46;100.00
10852;BME280;5479;52.046;6.314;2023-05-25T02:33:34;102530.44;;;8.40;100.00
10852;BME280;5479;52.046;6.314;2023-05-25T02:36:02;102533.69;;;8.52;100.00
10852;BME280;5479;52.046;6.314;2023-05-25T02:38:30;102528.47;;;8.48;100.00
10852;BME280;5479;52.046;6.314;2023-05-25T02:41:00;102529.34;;;8.51;100.00
10852;BME280;5479;52.046;6.314;2023-05-25T02:43:28;102533.81;;;8.47;100.00
10852;BME280;5479;52.046;6.314;2023-05-25T02:45:56;102528.47;;;8.48;100.00
10852;BME280;5479;52.046;6.314;2023-05-25T02:48:25;102533.81;;;8.45;100.00
10852;BME280;5479;52.046;6.314;2023-05-25T02:50:53;102535.50;;;8.49;100.00
10852;BME280;5479;52.046;6.314;2023-05-25T02:53:21;102537.28;;;8.49;100.00
10852;BME280;5479;52.046;6.314;2023-05-25T02:55:49;102540.16;;;8.38;100.00
10852;BME280;5479;52.046;6.314;2023-05-25T02:58:19;102534.19;;;8.30;100.00
10852;BME280;5479;52.046;6.314;2023-05-25T03:00:48;102540.34;;;8.29;100.00
10852;BME280;5479;52.046;6.314;2023-05-25T03:03:16;102540.41;;;8.26;100.00
10852;BME280;5479;52.046;6.314;2023-05-25T03:05:44;102550.13;;;8.24;100.00
10852;BME280;5479;52.046;6.314;2023-05-25T03:08:12;102551.88;;;8.25;100.00
10852;BME280;5479;52.046;6.314;2023-05-25T03:10:40;102550.97;;;8.28;100.00
10852;BME280;5479;52.046;6.314;2023-05-25T03:13:08;102552.72;;;8.29;100.00
10852;BME280;5479;52.046;6.314;2023-05-25T03:15:38;102559.72;;;8.30;100.00
10852;BME280;5479;52.046;6.314;2023-05-25T03:18:06;102564.97;;;8.31;100.00
10852;BME280;5479;52.046;6.314;2023-05-25T03:20:34;102559.63;;;8.34;100.00
10852;BME280;5479;52.046;6.314;2023-05-25T03:23:02;102558.03;;;8.24;100.00
10852;BME280;5479;52.046;6.314;2023-05-25T03:25:30;102571.38;;;8.18;100.00
10852;BME280;5479;52.046;6.314;2023-05-25T03:27:58;102563.38;;;8.23;100.00
10852;BME280;5479;52.046;6.314;2023-05-25T03:30:26;102563.22;;;8.32;100.00
10852;BME280;5479;52.046;6.314;2023-05-25T03:32:55;102563.13;;;8.35;100.00
10852;BME280;5479;52.046;6.314;2023-05-25T03:35:23;102571.03;;;8.35;100.00
10852;BME280;5479;52.046;6.314;2023-05-25T03:37:51;102570.03;;;8.40;100.00
10852;BME280;5479;52.046;6.314;2023-05-25T03:40:18;102576.00;;;8.50;100.00
10852;BME280;5479;52.046;6.314;2023-05-25T03:42:46;102577.00;;;8.43;100.00
10852;BME280;5479;52.046;6.314;2023-05-25T03:45:14;102579.63;;;8.44;100.00
10852;BME280;5479;52.046;6.314;2023-05-25T03:47:42;102577.88;;;8.43;100.00
10852;BME280;5479;52.046;6.314;2023-05-25T03:50:12;102583.03;;;8.49;100.00
10852;BME280;5479;52.046;6.314;2023-05-25T03:52:40;102574.06;;;8.57;100.00
10852;BME280;5479;52.046;6.314;2023-05-25T03:55:08;102586.19;;;8.67;100.00
10852;BME280;5479;52.046;6.314;2023-05-25T03:57:36;102585.94;;;8.76;100.00
10852;BME280;5479;52.046;6.314;2023-05-25T04:00:05;102579.69;;;8.80;100.00
10852;BME280;5479;52.046;6.314;2023-05-25T04:02:35;102587.53;;;8.83;100.00
10852;BME280;5479;52.046;6.314;2023-05-25T04:05:04;102582.09;;;8.90;100.00
10852;BME280;5479;52.046;6.314;2023-05-25T04:07:33;102580.28;;;8.91;100.00
10852;BME280;5479;52.046;6.314;2023-05-25T04:10:03;102582.16;;;8.86;100.00
10852;BME280;5479;52.046;6.314;2023-05-25T04:12:32;102580.53;;;8.82;100.00
10852;BME280;5479;52.046;6.314;2023-05-25T04:15:00;102577.75;;;8.88;100.00
10852;BME280;5479;52.046;6.314;2023-05-25T04:17:29;102576.81;;;8.89;100.00
10852;BME280;5479;52.046;6.314;2023-05-25T04:19:56;102577.56;;;8.94;100.00
10852;BME280;5479;52.046;6.314;2023-05-25T04:22:24;102585.44;;;8.97;100.00
10852;BME280;5479;52.046;6.314;2023-05-25T04:24:54;102582.72;;;9.00;100.00
10852;BME280;5479;52.046;6.314;2023-05-25T04:27:22;102581.69;;;9.05;100.00
10852;BME280;5479;52.046;6.314;2023-05-25T04:29:51;102585.38;;;9.00;100.00
10852;BME280;5479;52.046;6.314;2023-05-25T04:32:19;102592.22;;;9.07;100.00
10852;BME280;5479;52.046;6.314;2023-05-25T04:34:47;102587.44;;;9.23;100.00
10852;BME280;5479;52.046;6.314;2023-05-25T04:37:15;102588.41;;;9.20;100.00
10852;BME280;5479;52.046;6.314;2023-05-25T04:39:43;102599.13;;;9.14;100.00
10852;BME280;5479;52.046;6.314;2023-05-25T04:42:13;102593.03;;;9.10;100.00
10852;BME280;5479;52.046;6.314;2023-05-25T04:44:42;102596.31;;;9.20;100.00
10852;BME280;5479;52.046;6.314;2023-05-25T04:47:10;102588.94;;;9.33;100.00
10852;BME280;5479;52.046;6.314;2023-05-25T04:49:39;102592.53;;;9.30;100.00
10852;BME280;5479;52.046;6.314;2023-05-25T04:52:07;102594.09;;;9.37;100.00
10852;BME280;5479;52.046;6.314;2023-05-25T04:54:35;102593.81;;;9.48;100.00
10852;BME280;5479;52.046;6.314;2023-05-25T04:57:03;102598.91;;;9.55;100.00
10852;BME280;5479;52.046;6.314;2023-05-25T04:59:36;102596.72;;;9.71;100.00
10852;BME280;5479;52.046;6.314;2023-05-25T05:02:04;102602.84;;;9.73;100.00
10852;BME280;5479;52.046;6.314;2023-05-25T05:04:33;102601.63;;;9.85;100.00
10852;BME280;5479;52.046;6.314;2023-05-25T05:07:02;102614.44;;;10.00;100.00
10852;BME280;5479;52.046;6.314;2023-05-25T05:09:31;102614.22;;;10.07;100.00
10852;BME280;5479;52.046;6.314;2023-05-25T05:11:58;102619.84;;;9.95;100.00
10852;BME280;5479;52.046;6.314;2023-05-25T05:14:27;102628.00;;;9.88;100.00
10852;BME280;5479;52.046;6.314;2023-05-25T05:16:56;102634.50;;;10.08;100.00
10852;BME280;5479;52.046;6.314;2023-05-25T05:19:25;102633.78;;;10.02;100.00
10852;BME280;5479;52.046;6.314;2023-05-25T05:21:53;102637.03;;;10.11;100.00
10852;BME280;5479;52.046;6.314;2023-05-25T05:24:22;102622.88;;;10.14;100.00
10852;BME280;5479;52.046;6.314;2023-05-25T05:26:50;102628.94;;;10.19;100.00
10852;BME280;5479;52.046;6.314;2023-05-25T05:29:17;102631.47;;;10.22;100.00
10852;BME280;5479;52.046;6.314;2023-05-25T05:31:45;102636.06;;;10.46;100.00
10852;BME280;5479;52.046;6.314;2023-05-25T05:34:15;102637.53;;;10.56;100.00
10852;BME280;5479;52.046;6.314;2023-05-25T05:36:44;102632.25;;;10.84;100.00
10852;BME280;5479;52.046;6.314;2023-05-25T05:39:12;102640.84;;;11.18;100.00
10852;BME280;5479;52.046;6.314;2023-05-25T05:41:40;102635.00;;;11.35;100.00
10852;BME280;5479;52.046;6.314;2023-05-25T05:44:10;102649.78;;;11.68;100.00
10852;BME280;5479;52.046;6.314;2023-05-25T05:46:38;102648.31;;;11.60;100.00
10852;BME280;5479;52.046;6.314;2023-05-25T05:49:07;102648.84;;;11.71;100.00
10852;BME280;5479;52.046;6.314;2023-05-25T05:51:36;102648.63;;;11.77;100.00
10852;BME280;5479;52.046;6.314;2023-05-25T05:54:04;102646.88;;;11.76;100.00
10852;BME280;5479;52.046;6.314;2023-05-25T05:56:33;102643.25;;;11.52;100.00
10852;BME280;5479;52.046;6.314;2023-05-25T05:59:01;102644.94;;;11.55;100.00
10852;BME280;5479;52.046;6.314;2023-05-25T06:01:29;102657.03;;;11.63;100.00
10852;BME280;5479;52.046;6.314;2023-05-25T06:03:57;102655.75;;;11.75;100.00
10852;BME280;5479;52.046;6.314;2023-05-25T06:06:25;102656.56;;;12.01;100.00
10852;BME280;5479;52.046;6.314;2023-05-25T06:08:54;102668.84;;;12.29;100.00
10852;BME280;5479;52.046;6.314;2023-05-25T06:11:22;102658.91;;;12.10;100.00
10852;BME280;5479;52.046;6.314;2023-05-25T06:13:50;102654.97;;;12.21;100.00
10852;BME280;5479;52.046;6.314;2023-05-25T06:16:18;102657.31;;;12.30;100.00
10852;BME280;5479;52.046;6.314;2023-05-25T06:18:46;102657.03;;;12.37;100.00
10852;BME280;5479;52.046;6.314;2023-05-25T06:21:14;102660.75;;;12.55;100.00
10852;BME280;5479;52.046;6.314;2023-05-25T06:23:41;102665.50;;;12.70;100.00
10852;BME280;5479;52.046;6.314;2023-05-25T06:26:11;102669.03;;;12.70;100.00
10852;BME280;5479;52.046;6.314;2023-05-25T06:28:39;102667.91;;;12.99;100.00
10852;BME280;5479;52.046;6.314;2023-05-25T06:31:07;102671.19;;;13.49;100.00
10852;BME280;5479;52.046;6.314;2023-05-25T06:33:36;102669.28;;;14.33;100.00
10852;BME280;5479;52.046;6.314;2023-05-25T06:36:04;102666.81;;;15.58;100.00
10852;BME280;5479;52.046;6.314;2023-05-25T06:38:33;102672.38;;;16.70;100.00
10852;BME280;5479;52.046;6.314;2023-05-25T06:41:03;102669.13;;;16.48;100.00
10852;BME280;5479;52.046;6.314;2023-05-25T06:43:34;102684.31;;;15.98;100.00
10852;BME280;5479;52.046;6.314;2023-05-25T06:46:02;102679.84;;;15.81;100.00
10852;BME280;5479;52.046;6.314;2023-05-25T06:48:29;102682.81;;;15.58;100.00
10852;BME280;5479;52.046;6.314;2023-05-25T06:50:58;102686.44;;;15.21;100.00
10852;BME280;5479;52.046;6.314;2023-05-25T06:53:26;102686.59;;;14.81;100.00
10852;BME280;5479;52.046;6.314;2023-05-25T06:55:54;102690.50;;;14.74;100.00
10852;BME280;5479;52.046;6.314;2023-05-25T06:58:22;102694.38;;;14.85;100.00
10852;BME280;5479;52.046;6.314;2023-05-25T07:00:51;102688.13;;;14.68;100.00
10852;BME280;5479;52.046;6.314;2023-05-25T07:03:19;102689.50;;;14.95;100.00
10852;BME280;5479;52.046;6.314;2023-05-25T07:05:47;102693.09;;;14.94;100.00
10852;BME280;5479;52.046;6.314;2023-05-25T07:08:15;102691.16;;;14.97;100.00
10852;BME280;5479;52.046;6.314;2023-05-25T07:10:43;102696.25;;;15.02;100.00
10852;BME280;5479;52.046;6.314;2023-05-25T07:13:12;102692.06;;;14.96;100.00
10852;BME280;5479;52.046;6.314;2023-05-25T07:15:40;102700.31;;;15.28;100.00
10852;BME280;5479;52.046;6.314;2023-05-25T07:18:12;102694.13;;;15.46;100.00
10852;BME280;5479;52.046;6.314;2023-05-25T07:20:41;102696.13;;;15.77;100.00
10852;BME280;5479;52.046;6.314;2023-05-25T07:23:09;102689.75;;;15.79;100.00
10852;BME280;5479;52.046;6.314;2023-05-25T07:25:38;102696.88;;;16.63;100.00
10852;BME280;5479;52.046;6.314;2023-05-25T07:28:07;102687.66;;;16.18;100.00
10852;BME280;5479;52.046;6.314;2023-05-25T07:30:35;102698.88;;;15.75;100.00
10852;BME280;5479;52.046;6.314;2023-05-25T07:33:03;102700.97;;;15.51;100.00
10852;BME280;5479;52.046;6.314;2023-05-25T07:35:33;102694.69;;;15.87;100.00
10852;BME280;5479;52.046;6.314;2023-05-25T07:38:02;102694.06;;;16.81;100.00
10852;BME280;5479;52.046;6.314;2023-05-25T07:40:31;102694.75;;;17.77;100.00
10852;BME280;5479;52.046;6.314;2023-05-25T07:42:59;102694.00;;;18.90;91.71
10852;BME280;5479;52.046;6.314;2023-05-25T07:45:30;102689.97;;;19.23;88.25
10852;BME280;5479;52.046;6.314;2023-05-25T07:47:59;102690.88;;;19.51;82.79
10852;BME280;5479;52.046;6.314;2023-05-25T07:50:27;102695.72;;;18.34;86.11
10852;BME280;5479;52.046;6.314;2023-05-25T07:52:57;102698.22;;;17.03;100.00
10852;BME280;5479;52.046;6.314;2023-05-25T07:55:26;102706.16;;;16.88;100.00
10852;BME280;5479;52.046;6.314;2023-05-25T07:57:55;102711.69;;;17.01;99.40
10852;BME280;5479;52.046;6.314;2023-05-25T08:00:23;102721.41;;;16.21;100.00
10852;BME280;5479;52.046;6.314;2023-05-25T08:02:51;102714.69;;;15.97;100.00
10852;BME280;5479;52.046;6.314;2023-05-25T08:05:19;102723.88;;;15.91;100.00
10852;BME280;5479;52.046;6.314;2023-05-25T08:07:47;102724.25;;;15.66;100.00
10852;BME280;5479;52.046;6.314;2023-05-25T08:10:16;102729.19;;;15.74;100.00
10852;BME280;5479;52.046;6.314;2023-05-25T08:12:44;102727.94;;;16.48;100.00
10852;BME280;5479;52.046;6.314;2023-05-25T08:15:12;102724.75;;;17.84;95.64
10852;BME280;5479;52.046;6.314;2023-05-25T08:17:40;102730.94;;;17.23;95.01
10852;BME280;5479;52.046;6.314;2023-05-25T08:20:08;102729.13;;;17.55;96.05
10852;BME280;5479;52.046;6.314;2023-05-25T08:22:36;102727.56;;;17.96;92.85
10852;BME280;5479;52.046;6.314;2023-05-25T08:25:05;102730.25;;;17.96;91.32
10852;BME280;5479;52.046;6.314;2023-05-25T08:27:35;102734.31;;;17.58;93.22
10852;BME280;5479;52.046;6.314;2023-05-25T08:30:03;102734.31;;;17.11;97.20
10852;BME280;5479;52.046;6.314;2023-05-25T08:32:31;102737.44;;;16.55;100.00
10852;BME280;5479;52.046;6.314;2023-05-25T08:34:59;102737.72;;;16.32;100.00
10852;BME280;5479;52.046;6.314;2023-05-25T08:37:27;102739.97;;;15.90;100.00
10852;BME280;5479;52.046;6.314;2023-05-25T08:39:56;102734.00;;;16.02;100.00
10852;BME280;5479;52.046;6.314;2023-05-25T08:42:26;102741.31;;;16.15;100.00
10852;BME280;5479;52.046;6.314;2023-05-25T08:44:56;102738.56;;;15.83;100.00
10852;BME280;5479;52.046;6.314;2023-05-25T08:47:29;102741.34;;;15.62;100.00
10852;BME280;5479;52.046;6.314;2023-05-25T08:49:59;102746.63;;;15.81;100.00
10852;BME280;5479;52.046;6.314;2023-05-25T08:52:31;102741.84;;;15.88;100.00
10852;BME280;5479;52.046;6.314;2023-05-25T08:55:03;102745.19;;;16.93;99.48
10852;BME280;5479;52.046;6.314;2023-05-25T08:57:37;102740.78;;;17.99;88.71
10852;BME280;5479;52.046;6.314;2023-05-25T09:00:14;102734.56;;;18.99;73.39
10852;BME280;5479;52.046;6.314;2023-05-25T09:02:49;102737.53;;;19.89;80.87
10852;BME280;5479;52.046;6.314;2023-05-25T09:05:20;102734.84;;;20.54;75.27
10852;BME280;5479;52.046;6.314;2023-05-25T09:07:49;102735.97;;;21.36;62.33
10852;BME280;5479;52.046;6.314;2023-05-25T09:10:19;102732.34;;;20.25;66.86
10852;BME280;5479;52.046;6.314;2023-05-25T09:12:52;102739.34;;;18.52;80.85
10852;BME280;5479;52.046;6.314;2023-05-25T09:15:21;102747.09;;;17.37;86.25
10852;BME280;5479;52.046;6.314;2023-05-25T09:17:49;102741.91;;;16.87;91.78
10852;BME280;5479;52.046;6.314;2023-05-25T09:20:18;102745.50;;;16.71;95.45
10852;BME280;5479;52.046;6.314;2023-05-25T09:22:50;102744.66;;;16.86;100.00
10852;BME280;5479;52.046;6.314;2023-05-25T09:25:28;102744.94;;;17.44;98.28
10852;BME280;5479;52.046;6.314;2023-05-25T09:27:59;102736.59;;;18.09;92.91
10852;BME280;5479;52.046;6.314;2023-05-25T09:30:32;102734.81;;;18.24;90.06
10852;BME280;5479;52.046;6.314;2023-05-25T09:33:12;102735.88;;;19.20;80.26
10852;BME280;5479;52.046;6.314;2023-05-25T09:35:44;102732.53;;;21.82;65.22
10852;BME280;5479;52.046;6.314;2023-05-25T09:38:15;102737.59;;;21.62;60.28
10852;BME280;5479;52.046;6.314;2023-05-25T09:40:44;102735.91;;;21.25;59.47
10852;BME280;5479;52.046;6.314;2023-05-25T09:43:12;102740.53;;;20.36;63.33
10852;BME280;5479;52.046;6.314;2023-05-25T09:45:47;102742.34;;;19.31;67.10
10852;BME280;5479;52.046;6.314;2023-05-25T09:48:18;102735.06;;;18.05;73.33
10852;BME280;5479;52.046;6.314;2023-05-25T09:50:47;102734.34;;;19.02;69.19
10852;BME280;5479;52.046;6.314;2023-05-25T09:53:15;102731.97;;;20.93;62.57
10852;BME280;5479;52.046;6.314;2023-05-25T09:55:47;102724.28;;;21.48;57.01
10852;BME280;5479;52.046;6.314;2023-05-25T09:58:21;102723.44;;;20.37;57.53
10852;BME280;5479;52.046;6.314;2023-05-25T10:00:57;102730.88;;;21.21;54.66
10852;BME280;5479;52.046;6.314;2023-05-25T10:03:25;102732.09;;;21.64;49.31
10852;BME280;5479;52.046;6.314;2023-05-25T10:05:53;102733.47;;;21.10;49.21
10852;BME280;5479;52.046;6.314;2023-05-25T10:08:23;102723.22;;;19.49;53.77
10852;BME280;5479;52.046;6.314;2023-05-25T10:10:51;102726.41;;;19.68;56.43
10852;BME280;5479;52.046;6.314;2023-05-25T10:13:20;102722.56;;;20.62;53.42
10852;BME280;5479;52.046;6.314;2023-05-25T10:15:52;102719.75;;;21.49;52.61
10852;BME280;5479;52.046;6.314;2023-05-25T10:18:25;102732.41;;;20.87;49.68
10852;BME280;5479;52.046;6.314;2023-05-25T10:21:00;102728.38;;;20.43;50.47
10852;BME280;5479;52.046;6.314;2023-05-25T10:23:34;102731.31;;;19.62;53.67
10852;BME280;5479;52.046;6.314;2023-05-25T10:26:06;102726.31;;;19.29;54.23
10852;BME280;5479;52.046;6.314;2023-05-25T10:28:36;102728.63;;;19.62;53.61
10852;BME280;5479;52.046;6.314;2023-05-25T10:31:08;102730.63;;;19.32;53.95
10852;BME280;5479;52.046;6.314;2023-05-25T10:33:36;102727.16;;;19.70;55.38
10852;BME280;5479;52.046;6.314;2023-05-25T10:36:05;102727.06;;;19.04;56.13
10852;BME280;5479;52.046;6.314;2023-05-25T10:38:33;102732.50;;;19.58;53.96
10852;BME280;5479;52.046;6.314;2023-05-25T10:41:03;102732.91;;;19.52;54.50
10852;BME280;5479;52.046;6.314;2023-05-25T10:43:32;102745.69;;;18.93;53.37
10852;BME280;5479;52.046;6.314;2023-05-25T10:46:00;102748.25;;;17.94;57.53
10852;BME280;5479;52.046;6.314;2023-05-25T10:48:36;102738.16;;;17.84;59.23
10852;BME280;5479;52.046;6.314;2023-05-25T10:51:04;102738.19;;;17.98;60.46
10852;BME280;5479;52.046;6.314;2023-05-25T10:53:31;102739.16;;;18.11;61.95
10852;BME280;5479;52.046;6.314;2023-05-25T10:56:01;102737.16;;;18.15;62.52
10852;BME280;5479;52.046;6.314;2023-05-25T10:58:30;102743.97;;;18.50;61.13
10852;BME280;5479;52.046;6.314;2023-05-25T11:00:59;102741.25;;;18.78;59.58
10852;BME280;5479;52.046;6.314;2023-05-25T11:03:56;102728.56;;;20.28;54.87
10852;BME280;5479;52.046;6.314;2023-05-25T11:09:27;102726.00;;;19.48;53.45
10852;BME280;5479;52.046;6.314;2023-05-25T11:12:01;102735.91;;;18.92;55.88
10852;BME280;5479;52.046;6.314;2023-05-25T11:14:30;102735.72;;;18.53;57.96
10852;BME280;5479;52.046;6.314;2023-05-25T11:17:03;102730.81;;;18.59;59.11
10852;BME280;5479;52.046;6.314;2023-05-25T11:19:43;102731.88;;;18.99;58.07
10852;BME280;5479;52.046;6.314;2023-05-25T11:22:12;102729.69;;;18.78;58.35
10852;BME280;5479;52.046;6.314;2023-05-25T11:24:41;102725.38;;;18.75;59.81
10852;BME280;5479;52.046;6.314;2023-05-25T11:27:11;102725.94;;;18.52;59.11
10852;BME280;5479;52.046;6.314;2023-05-25T11:29:40;102736.97;;;18.61;61.00
10852;BME280;5479;52.046;6.314;2023-05-25T11:32:12;102730.84;;;19.28;56.31
10852;BME280;5479;52.046;6.314;2023-05-25T11:34:42;102730.81;;;18.88;56.09
10852;BME280;5479;52.046;6.314;2023-05-25T11:37:15;102721.28;;;19.10;54.90
10852;BME280;5479;52.046;6.314;2023-05-25T11:39:48;102714.22;;;18.81;56.86
10852;BME280;5479;52.046;6.314;2023-05-25T11:42:19;102717.28;;;19.03;55.46
10852;BME280;5479;52.046;6.314;2023-05-25T11:44:47;102721.72;;;18.76;55.27
10852;BME280;5479;52.046;6.314;2023-05-25T11:47:18;102712.59;;;19.34;54.27
10852;BME280;5479;52.046;6.314;2023-05-25T11:49:49;102705.47;;;19.86;51.40
10852;BME280;5479;52.046;6.314;2023-05-25T11:52:19;102705.94;;;20.18;50.59
10852;BME280;5479;52.046;6.314;2023-05-25T11:54:48;102695.28;;;19.52;52.44
10852;BME280;5479;52.046;6.314;2023-05-25T11:57:17;102700.81;;;18.95;52.02
10852;BME280;5479;52.046;6.314;2023-05-25T11:59:50;102704.56;;;18.79;56.55
10852;BME280;5479;52.046;6.314;2023-05-25T12:02:18;102699.69;;;18.85;58.37
10852;BME280;5479;52.046;6.314;2023-05-25T12:04:55;102690.25;;;18.92;55.11
10852;BME280;5479;52.046;6.314;2023-05-25T12:07:24;102696.09;;;19.40;56.05
10852;BME280;5479;52.046;6.314;2023-05-25T12:10:03;102687.31;;;19.50;54.51
10852;BME280;5479;52.046;6.314;2023-05-25T12:12:39;102695.81;;;19.30;56.10
10852;BME280;5479;52.046;6.314;2023-05-25T12:15:09;102691.66;;;19.53;55.80
10852;BME280;5479;52.046;6.314;2023-05-25T12:17:43;102689.56;;;19.29;56.32
10852;BME280;5479;52.046;6.314;2023-05-25T12:20:14;102688.25;;;19.22;54.74
10852;BME280;5479;52.046;6.314;2023-05-25T12:22:45;102697.34;;;18.93;56.16
10852;BME280;5479;52.046;6.314;2023-05-25T12:25:13;102686.53;;;18.81;56.95
10852;BME280;5479;52.046;6.314;2023-05-25T12:27:44;102679.50;;;19.60;52.30
10852;BME280;5479;52.046;6.314;2023-05-25T12:30:12;102672.16;;;19.22;52.69
10852;BME280;5479;52.046;6.314;2023-05-25T12:32:52;102677.53;;;19.22;53.96
10852;BME280;5479;52.046;6.314;2023-05-25T12:35:23;102680.84;;;18.99;56.17
10852;BME280;5479;52.046;6.314;2023-05-25T12:38:10;102682.56;;;19.00;57.42
10852;BME280;5479;52.046;6.314;2023-05-25T12:40:40;102679.31;;;18.95;57.91
10852;BME280;5479;52.046;6.314;2023-05-25T12:43:08;102675.94;;;19.06;56.43
10852;BME280;5479;52.046;6.314;2023-05-25T12:45:38;102674.00;;;19.49;56.58
10852;BME280;5479;52.046;6.314;2023-05-25T12:48:07;102670.78;;;19.29;55.44
10852;BME280;5479;52.046;6.314;2023-05-25T12:50:36;102679.94;;;18.58;58.09
10852;BME280;5479;52.046;6.314;2023-05-25T12:53:04;102680.03;;;18.42;58.68
10852;BME280;5479;52.046;6.314;2023-05-25T12:55:33;102676.34;;;18.43;59.40
10852;BME280;5479;52.046;6.314;2023-05-25T12:58:02;102672.81;;;18.85;58.40
10852;BME280;5479;52.046;6.314;2023-05-25T13:00:32;102680.88;;;18.43;60.34
10852;BME280;5479;52.046;6.314;2023-05-25T13:03:00;102685.69;;;18.52;59.98
10852;BME280;5479;52.046;6.314;2023-05-25T13:05:31;102680.91;;;18.71;58.85
10852;BME280;5479;52.046;6.314;2023-05-25T13:08:05;102684.00;;;18.07;60.24
10852;BME280;5479;52.046;6.314;2023-05-25T13:10:36;102675.03;;;18.08;62.29
10852;BME280;5479;52.046;6.314;2023-05-25T13:13:05;102678.81;;;18.48;59.85